PWSweather.com
Personal Weather Stations
Station Observations

SkegnessGB

Lat: 53.147585, Lon: 0.345774

Elevation: 18

Station Type: Fine Offset WH3080

http://www.skegnessweather.info/

Latest ConditionsUpdated 4:20:00 AM GMT Monday, Jun 25, 2018
Currently Today's Max Today's Min Today's Average
Temperature 53.6°F12.0°C 59.5°F15.3°C 53.4°F11.9°C 56.0°F13.3°C
Dew Point 52.5°F11.4°C 56.4°F13.6°C 52.1°F11.2°C 54.1°F12.3°C
Winds 0.5 mph SW0.8 kmh SW 4.0 mph -6.4 kmh - - 2.1 mph 3.4 kmh
Wind Gusts 1.7 mph2.7 kmh 4.9 mph7.9 kmh - -
Humidity 96% 100% 87% 93%
Pressure 30.30 in1026.1 mb 30.31 in1026.4 mb 30.29 in1025.7 mb -
Hour Temp Dew Point Humidity Winds Wind Gusts Pressure Precip Precip Rate Daily Precip Total
04:20 AM 53.6°F12.0°C 52.5°F11.4°C 96% 0.5 mph SW0.8 kmh SW 1.7 mph2.7 kmh 30.30 in1026.1 mb 0.00 in0.0 mm 0.00 in0.0 mm 0.00 in0.0 mm
04:10 AM 53.4°F11.9°C 53.4°F11.9°C 100% 1.0 mph E1.6 kmh E 1.7 mph2.7 kmh 30.29 in1025.7 mb 0.00 in0.0 mm 0.00 in0.0 mm 0.00 in0.0 mm
04:00 AM 53.4°F11.9°C 53.1°F11.7°C 99% 1.1 mph S1.8 kmh S 2.5 mph4.0 kmh 30.29 in1025.7 mb 0.00 in0.0 mm 0.00 in0.0 mm 0.00 in0.0 mm
03:50 AM 53.6°F12.0°C 52.2°F11.2°C 95% 0.9 mph SSW1.4 kmh SSW 1.7 mph2.7 kmh 30.30 in1026.1 mb 0.00 in0.0 mm 0.00 in0.0 mm 0.00 in0.0 mm
03:40 AM 53.8°F12.1°C 52.4°F11.3°C 95% 1.2 mph SSW1.9 kmh SSW 2.5 mph4.0 kmh 30.29 in1025.7 mb 0.00 in0.0 mm 0.00 in0.0 mm 0.00 in0.0 mm
03:30 AM 53.8°F12.1°C 52.1°F11.2°C 94% 1.1 mph SSW1.8 kmh SSW 2.5 mph4.0 kmh 30.29 in1025.7 mb 0.00 in0.0 mm 0.00 in0.0 mm 0.00 in0.0 mm
03:20 AM 54.1°F12.3°C 52.5°F11.4°C 94% 1.3 mph SSW2.1 kmh SSW 2.5 mph4.0 kmh 30.29 in1025.7 mb 0.00 in0.0 mm 0.00 in0.0 mm 0.00 in0.0 mm
03:10 AM 54.3°F12.4°C 52.6°F11.4°C 94% 1.2 mph S1.9 kmh S 3.4 mph5.5 kmh 30.30 in1026.1 mb 0.00 in0.0 mm 0.00 in0.0 mm 0.00 in0.0 mm
03:00 AM 54.5°F12.5°C 53.1°F11.7°C 95% 2.3 mph S3.7 kmh S 3.4 mph5.5 kmh 30.29 in1025.7 mb 0.00 in0.0 mm 0.00 in0.0 mm 0.00 in0.0 mm
02:50 AM 54.7°F12.6°C 53.3°F11.8°C 95% 2.9 mph S4.7 kmh S 3.4 mph5.5 kmh 30.30 in1026.1 mb 0.00 in0.0 mm 0.00 in0.0 mm 0.00 in0.0 mm
02:40 AM 54.9°F12.7°C 53.2°F11.8°C 94% 1.9 mph S3.1 kmh S 2.5 mph4.0 kmh 30.29 in1025.7 mb 0.00 in0.0 mm 0.00 in0.0 mm 0.00 in0.0 mm
02:30 AM 55.0°F12.8°C 53.3°F11.8°C 94% 1.6 mph SW2.6 kmh SW 2.5 mph4.0 kmh 30.30 in1026.1 mb 0.00 in0.0 mm 0.00 in0.0 mm 0.00 in0.0 mm
02:20 AM 55.2°F12.9°C 53.5°F11.9°C 94% 1.0 mph W1.6 kmh W 2.5 mph4.0 kmh 30.30 in1026.1 mb 0.00 in0.0 mm 0.00 in0.0 mm 0.00 in0.0 mm
02:10 AM 55.8°F13.2°C 54.1°F12.3°C 94% 2.5 mph SE4.0 kmh SE 2.5 mph4.0 kmh 30.30 in1026.1 mb 0.00 in0.0 mm 0.00 in0.0 mm 0.00 in0.0 mm
02:00 AM 55.9°F13.3°C 53.9°F12.2°C 93% 2.6 mph SW4.2 kmh SW 2.5 mph4.0 kmh 30.30 in1026.1 mb 0.00 in0.0 mm 0.00 in0.0 mm 0.00 in0.0 mm
01:50 AM 56.1°F13.4°C 54.1°F12.3°C 93% 2.3 mph NE3.7 kmh NE 3.4 mph5.5 kmh 30.30 in1026.1 mb 0.00 in0.0 mm 0.00 in0.0 mm 0.00 in0.0 mm
01:40 AM 56.5°F13.6°C 54.5°F12.5°C 93% 3.0 mph SW4.8 kmh SW 4.2 mph6.8 kmh 30.30 in1026.1 mb 0.00 in0.0 mm 0.00 in0.0 mm 0.00 in0.0 mm
01:30 AM 56.8°F13.8°C 54.8°F12.7°C 93% 2.6 mph WSW4.2 kmh WSW 3.4 mph5.5 kmh 30.30 in1026.1 mb 0.00 in0.0 mm 0.00 in0.0 mm 0.00 in0.0 mm
01:20 AM 57.2°F14.0°C 55.2°F12.9°C 93% 2.4 mph S3.9 kmh S 3.4 mph5.5 kmh 30.30 in1026.1 mb 0.00 in0.0 mm 0.00 in0.0 mm 0.00 in0.0 mm
01:10 AM 57.6°F14.2°C 55.3°F12.9°C 92% 1.7 mph SSW2.7 kmh SSW 3.4 mph5.5 kmh 30.30 in1026.1 mb 0.00 in0.0 mm 0.00 in0.0 mm 0.00 in0.0 mm
01:00 AM 57.9°F14.4°C 55.6°F13.1°C 92% 2.3 mph SSE3.7 kmh SSE 3.4 mph5.5 kmh 30.30 in1026.1 mb 0.00 in0.0 mm 0.00 in0.0 mm 0.00 in0.0 mm
12:50 AM 58.5°F14.7°C 56.1°F13.4°C 92% 2.5 mph SW4.0 kmh SW 3.4 mph5.5 kmh 30.31 in1026.4 mb 0.00 in0.0 mm 0.00 in0.0 mm 0.00 in0.0 mm
12:40 AM 59.0°F15.0°C 56.4°F13.6°C 91% 4.0 mph SSW6.4 kmh SSW 4.9 mph7.9 kmh 30.30 in1026.1 mb 0.00 in0.0 mm 0.00 in0.0 mm 0.00 in0.0 mm
12:30 AM 59.2°F15.1°C 56.2°F13.4°C 90% 3.4 mph S5.5 kmh S 4.2 mph6.8 kmh 30.31 in1026.4 mb 0.00 in0.0 mm 0.00 in0.0 mm 0.00 in0.0 mm
12:20 AM 59.4°F15.2°C 55.8°F13.2°C 88% 4.0 mph S6.4 kmh S 4.2 mph6.8 kmh 30.31 in1026.4 mb 0.00 in0.0 mm 0.00 in0.0 mm 0.00 in0.0 mm
12:10 AM 59.5°F15.3°C 55.7°F13.2°C 87% 3.6 mph S5.8 kmh S 4.2 mph6.8 kmh 30.30 in1026.1 mb 0.00 in0.0 mm 0.00 in0.0 mm 0.00 in0.0 mm
12:00 AM 59.4°F15.2°C 55.5°F13.1°C 87% 3.0 mph S4.8 kmh S 4.2 mph6.8 kmh 30.31 in1026.4 mb 0.00 in0.0 mm 0.00 in0.0 mm 0.00 in0.0 mm